Burdick, Kansas
Current Conditions -  °F | °C
As of 6:58 PM on Tuesday 27 Jan 2015 (Local Time) from KFRI Reporting Station
Clear Clear  
Wind Chill: 56°   Ceiling: Unl
Heat Index: 56°   Visibility: 10mi
Dew Point: 34°   Wind: 12mph
Humidity: 44%   Direction: 130°SE
Pressure: 29.99"   Gusts: NA
Location:  38.56°N, 96.85°W
Report Text: KFRI 280058Z AUTO 13010KT 10SM CLR 13/01 A2999 RMK AO2 SLP160 T01340012
Loading
Personal Weather Stations






























Interactive Weather Map New forecast layout! Learn more

10-Day Weather Forecast

Advertisements
Track Severe Weather on mobile